createdAt,value
2023-05-10T00:00:23.608Z,5.80
2023-05-10T00:02:50.498Z,6.18
2023-05-10T00:05:17.313Z,5.93
2023-05-10T00:07:45.957Z,7.93
2023-05-10T00:10:13.231Z,3.22
2023-05-10T00:12:40.212Z,6.18
2023-05-10T00:15:07.625Z,5.30
2023-05-10T00:17:34.428Z,6.28
2023-05-10T00:20:01.529Z,5.68
2023-05-10T00:22:28.341Z,4.00
2023-05-10T00:24:55.124Z,6.00
2023-05-10T00:27:22.054Z,7.45
2023-05-10T00:29:48.740Z,5.70
2023-05-10T00:32:15.576Z,5.90
2023-05-10T00:34:42.397Z,7.60
2023-05-10T00:37:09.282Z,5.25
2023-05-10T00:39:35.985Z,6.65
2023-05-10T00:42:02.818Z,5.25
2023-05-10T00:44:29.584Z,6.65
2023-05-10T00:46:56.308Z,6.85
2023-05-10T00:49:23.130Z,7.53
2023-05-10T00:51:50.593Z,6.00
2023-05-10T00:54:17.565Z,3.33
2023-05-10T00:56:49.647Z,3.55
2023-05-10T00:59:18.120Z,5.63
2023-05-10T01:01:46.541Z,4.03
2023-05-10T01:04:14.558Z,3.10
2023-05-10T01:06:42.026Z,5.88
2023-05-10T01:09:09.110Z,5.60
2023-05-10T01:11:37.840Z,6.70
2023-05-10T01:14:04.825Z,6.47
2023-05-10T01:16:37.697Z,5.05
2023-05-10T01:19:07.540Z,9.52
2023-05-10T01:21:44.517Z,6.45
2023-05-10T01:24:33.444Z,6.28
2023-05-10T01:27:20.358Z,6.95
2023-05-10T01:35:46.588Z,6.15
2023-05-10T01:38:47.525Z,4.97
2023-05-10T01:41:17.621Z,2.20
2023-05-10T01:44:07.649Z,3.28
2023-05-10T01:46:39.491Z,7.07
2023-05-10T01:49:12.792Z,4.65
2023-05-10T01:51:55.713Z,7.50
2023-05-10T01:54:24.780Z,5.35
2023-05-10T01:57:00.509Z,6.13
2023-05-10T01:59:37.220Z,6.95
2023-05-10T02:02:06.629Z,3.75
2023-05-10T02:04:36.339Z,8.10
2023-05-10T02:07:03.387Z,6.90
2023-05-10T02:09:33.015Z,4.93
2023-05-10T02:12:03.500Z,5.75
2023-05-10T02:14:33.346Z,5.63
2023-05-10T02:17:01.248Z,5.13
2023-05-10T02:19:30.026Z,8.32
2023-05-10T02:21:58.228Z,5.53
2023-05-10T02:24:26.168Z,6.00
2023-05-10T02:26:55.469Z,5.90
2023-05-10T02:29:25.138Z,8.75
2023-05-10T02:31:56.944Z,6.97
2023-05-10T02:34:26.769Z,5.95
2023-05-10T02:36:55.130Z,9.48
2023-05-10T02:39:23.007Z,10.18
2023-05-10T02:42:01.656Z,8.55
2023-05-10T02:44:37.648Z,7.53
2023-05-10T02:47:05.054Z,7.75
2023-05-10T02:49:32.042Z,8.13
2023-05-10T02:52:05.787Z,6.63
2023-05-10T02:54:35.704Z,8.82
2023-05-10T02:57:06.872Z,5.65
2023-05-10T02:59:34.039Z,6.18
2023-05-10T03:02:11.364Z,6.90
2023-05-10T03:04:41.279Z,6.32
2023-05-10T03:07:09.539Z,6.57
2023-05-10T03:09:36.831Z,6.45
2023-05-10T03:12:03.658Z,7.43
2023-05-10T03:14:36.408Z,6.38
2023-05-10T03:17:12.766Z,6.13
2023-05-10T03:19:48.631Z,7.10
2023-05-10T03:22:41.924Z,7.25
2023-05-10T03:25:11.907Z,7.53
2023-05-10T03:27:43.955Z,8.05
2023-05-10T03:30:14.924Z,7.88
2023-05-10T03:32:41.903Z,7.80
2023-05-10T03:35:13.395Z,12.20
2023-05-10T03:37:40.530Z,6.10
2023-05-10T03:40:08.252Z,7.85
2023-05-10T03:42:35.138Z,7.82
2023-05-10T03:45:01.860Z,5.28
2023-05-10T03:47:28.565Z,7.63
2023-05-10T03:49:55.323Z,7.10
2023-05-10T03:52:22.021Z,5.30
2023-05-10T03:54:48.718Z,6.10
2023-05-10T03:57:15.892Z,4.68
2023-05-10T03:59:42.567Z,6.20
2023-05-10T04:02:09.304Z,4.38
2023-05-10T04:04:36.003Z,6.00
2023-05-10T04:07:02.679Z,9.02
2023-05-10T04:09:29.399Z,8.55
2023-05-10T04:11:56.160Z,11.07
2023-05-10T04:14:22.857Z,15.02
2023-05-10T04:16:49.567Z,9.82
2023-05-10T04:19:16.326Z,16.45
2023-05-10T04:21:43.047Z,20.02
2023-05-10T04:24:09.848Z,21.17
2023-05-10T04:26:44.677Z,24.35
2023-05-10T04:29:11.694Z,20.90
2023-05-10T04:31:39.162Z,15.52
2023-05-10T04:34:06.484Z,16.02
2023-05-10T04:36:37.916Z,12.05
2023-05-10T04:39:06.092Z,23.95
2023-05-10T04:41:32.885Z,22.40
2023-05-10T04:43:59.640Z,14.65
2023-05-10T04:46:26.593Z,19.40
2023-05-10T04:48:53.303Z,22.00
2023-05-10T04:51:20.070Z,21.27
2023-05-10T04:53:57.649Z,28.13
2023-05-10T04:56:31.709Z,20.33
2023-05-10T04:58:58.698Z,21.08
2023-05-10T05:01:25.475Z,18.80
2023-05-10T05:03:53.989Z,21.08
2023-05-10T05:06:22.145Z,16.60
2023-05-10T05:08:50.439Z,28.52
2023-05-10T05:11:18.736Z,23.70
2023-05-10T05:13:45.912Z,17.48
2023-05-10T05:16:12.715Z,17.38
2023-05-10T05:18:39.688Z,22.88
2023-05-10T05:21:19.319Z,16.33
2023-05-10T05:23:46.474Z,26.42
2023-05-10T05:26:13.242Z,22.08
2023-05-10T05:28:40.055Z,25.27
2023-05-10T05:31:08.751Z,17.00
2023-05-10T05:33:35.870Z,9.43
2023-05-10T05:36:04.073Z,17.15
2023-05-10T05:38:30.793Z,18.52
2023-05-10T05:40:57.571Z,15.65
2023-05-10T05:43:24.342Z,15.18
2023-05-10T05:45:53.006Z,19.58
2023-05-10T05:48:19.838Z,17.27
2023-05-10T05:50:47.003Z,19.13
2023-05-10T05:53:13.695Z,17.20
2023-05-10T05:55:40.414Z,10.38
2023-05-10T05:58:07.152Z,19.67
2023-05-10T06:00:33.867Z,19.83
2023-05-10T06:03:00.810Z,10.40
2023-05-10T06:05:27.755Z,21.30
2023-05-10T06:07:54.440Z,14.68
2023-05-10T06:10:21.092Z,21.73
2023-05-10T06:12:48.250Z,10.30
2023-05-10T06:15:15.131Z,12.68
2023-05-10T06:17:42.217Z,12.32
2023-05-10T06:20:09.586Z,9.00
2023-05-10T06:22:36.319Z,13.43
2023-05-10T06:25:03.643Z,5.45
2023-05-10T06:27:30.320Z,11.70
2023-05-10T06:30:09.215Z,13.73
2023-05-10T06:32:39.491Z,10.20
2023-05-10T06:35:06.828Z,8.55
2023-05-10T06:37:33.498Z,9.43
2023-05-10T06:40:00.274Z,7.63
2023-05-10T06:42:28.125Z,9.48
2023-05-10T06:44:54.867Z,8.95
2023-05-10T06:47:21.500Z,18.55
2023-05-10T06:49:48.226Z,12.75
2023-05-10T06:52:14.971Z,9.52
2023-05-10T06:54:41.779Z,13.43
2023-05-10T06:57:15.979Z,19.27
2023-05-10T06:59:46.511Z,15.73
2023-05-10T07:02:13.509Z,9.10
2023-05-10T07:04:40.643Z,11.38
2023-05-10T07:07:07.438Z,11.90
2023-05-10T07:09:34.529Z,19.65
2023-05-10T07:12:02.788Z,13.15
2023-05-10T07:14:29.474Z,13.98
2023-05-10T07:16:56.508Z,11.20
2023-05-10T07:19:23.505Z,14.25
2023-05-10T07:21:50.266Z,13.55
2023-05-10T07:24:17.013Z,16.42
2023-05-10T07:26:43.680Z,17.13
2023-05-10T07:29:10.985Z,14.05
2023-05-10T07:31:37.707Z,13.40
2023-05-10T07:34:04.480Z,10.93
2023-05-10T07:36:31.892Z,14.27
2023-05-10T07:38:58.737Z,18.55
2023-05-10T07:41:25.412Z,12.48
2023-05-10T07:43:52.315Z,12.93
2023-05-10T07:46:20.569Z,16.25
2023-05-10T07:48:47.455Z,14.80
2023-05-10T07:51:14.635Z,15.07
2023-05-10T07:53:41.542Z,13.43
2023-05-10T07:56:21.860Z,12.95
2023-05-10T07:58:48.802Z,17.30
2023-05-10T08:01:15.602Z,13.35
2023-05-10T08:03:42.402Z,16.95
2023-05-10T08:06:09.248Z,14.60
2023-05-10T08:08:35.992Z,9.40
2023-05-10T08:11:03.025Z,17.13
2023-05-10T08:13:29.757Z,10.13
2023-05-10T08:15:56.713Z,11.32
2023-05-10T08:18:23.625Z,17.58
2023-05-10T08:20:50.579Z,8.93
2023-05-10T08:23:17.286Z,13.18
2023-05-10T08:25:43.981Z,18.48
2023-05-10T08:28:11.959Z,15.45
2023-05-10T08:30:38.794Z,16.38
2023-05-10T08:33:05.604Z,13.70
2023-05-10T08:35:32.694Z,16.52
2023-05-10T08:37:59.461Z,17.10
2023-05-10T08:40:27.604Z,16.00
2023-05-10T08:43:07.601Z,17.17
2023-05-10T08:45:38.588Z,8.45
2023-05-10T08:48:07.596Z,13.90
2023-05-10T08:50:37.637Z,13.35
2023-05-10T08:53:12.407Z,8.63
2023-05-10T08:55:39.999Z,12.77
2023-05-10T08:58:07.684Z,10.75
2023-05-10T09:00:35.345Z,7.32
2023-05-10T09:03:03.891Z,11.90
2023-05-10T09:05:31.023Z,8.32
2023-05-10T09:07:58.093Z,9.27
2023-05-10T09:10:28.248Z,12.73
2023-05-10T09:15:25.602Z,9.32
2023-05-10T09:17:52.556Z,12.38
2023-05-10T09:20:20.227Z,15.60
2023-05-10T09:22:47.022Z,7.03
2023-05-10T09:25:16.243Z,6.00
2023-05-10T09:27:48.392Z,12.60
2023-05-10T09:30:24.768Z,6.72
2023-05-10T09:35:22.670Z,11.77
2023-05-10T09:37:51.757Z,15.15
2023-05-10T09:40:19.566Z,14.55
2023-05-10T09:43:00.867Z,17.35
2023-05-10T09:45:31.902Z,6.65
2023-05-10T09:48:00.022Z,16.70
2023-05-10T09:50:27.804Z,11.52
2023-05-10T09:53:03.980Z,9.55
2023-05-10T09:55:40.086Z,17.30
2023-05-10T09:58:11.278Z,13.32
2023-05-10T10:00:42.691Z,11.98
2023-05-10T10:03:16.589Z,9.32
2023-05-10T10:05:44.611Z,13.75
2023-05-10T10:08:13.086Z,18.42
2023-05-10T10:10:42.654Z,14.02
2023-05-10T10:13:09.597Z,9.55
2023-05-10T10:15:36.672Z,6.75
2023-05-10T10:18:05.278Z,15.20
2023-05-10T10:20:32.737Z,10.57
2023-05-10T10:22:59.521Z,13.85
2023-05-10T10:25:27.303Z,8.35
2023-05-10T10:27:54.202Z,10.20
2023-05-10T10:30:31.486Z,8.45
2023-05-10T10:33:10.384Z,13.45
2023-05-10T10:35:55.068Z,8.93
2023-05-10T10:38:22.982Z,10.93
2023-05-10T10:41:04.047Z,11.25
2023-05-10T10:43:34.204Z,9.55
2023-05-10T10:51:17.840Z,12.30
2023-05-10T10:53:52.735Z,11.18
2023-05-10T10:56:25.372Z,8.75
2023-05-10T10:58:54.369Z,8.98
2023-05-10T11:01:21.983Z,6.18
2023-05-10T11:04:01.720Z,11.98
2023-05-10T11:06:41.533Z,10.25
2023-05-10T11:09:13.216Z,8.13
2023-05-10T11:11:56.619Z,11.05
2023-05-10T11:14:24.017Z,8.85
2023-05-10T11:16:51.591Z,9.35
2023-05-10T11:19:27.087Z,9.68
2023-05-10T11:22:06.584Z,8.80
2023-05-10T11:24:34.962Z,6.63
2023-05-10T11:27:02.393Z,10.52
2023-05-10T11:29:29.708Z,6.70
2023-05-10T11:32:00.753Z,10.00
2023-05-10T11:34:39.075Z,4.13
2023-05-10T11:37:15.095Z,9.40
2023-05-10T11:39:48.694Z,12.98
2023-05-10T11:42:15.730Z,8.05
2023-05-10T11:44:44.364Z,10.93
2023-05-10T11:47:13.342Z,7.70
2023-05-10T11:49:40.374Z,10.48
2023-05-10T11:52:22.459Z,10.02
2023-05-10T11:54:53.523Z,10.27
2023-05-10T11:57:21.779Z,9.68
2023-05-10T11:59:48.566Z,8.20
2023-05-10T12:02:16.030Z,8.32
2023-05-10T12:04:43.153Z,5.80
2023-05-10T12:07:10.512Z,8.65
2023-05-10T12:09:43.729Z,10.73
2023-05-10T12:12:11.457Z,8.70
2023-05-10T12:14:38.221Z,8.02
2023-05-10T12:17:04.920Z,9.20
2023-05-10T12:19:40.694Z,8.65
2023-05-10T12:22:07.467Z,11.23
2023-05-10T12:24:39.217Z,9.63
2023-05-10T12:27:09.231Z,8.10
2023-05-10T12:32:03.494Z,10.82
2023-05-10T12:34:35.930Z,12.35
2023-05-10T12:37:08.218Z,9.73
2023-05-10T12:39:45.084Z,11.05
2023-05-10T12:42:14.193Z,8.02
2023-05-10T12:44:41.023Z,6.47
2023-05-10T12:47:08.380Z,7.63
2023-05-10T12:49:35.200Z,7.70
2023-05-10T12:52:04.505Z,9.40
2023-05-10T12:54:31.527Z,9.98
2023-05-10T12:56:58.284Z,9.60
2023-05-10T12:59:24.912Z,7.88
2023-05-10T13:01:51.654Z,6.95
2023-05-10T13:04:18.317Z,8.85
2023-05-10T13:06:45.391Z,10.15
2023-05-10T13:09:12.137Z,8.50
2023-05-10T13:11:38.812Z,7.18
2023-05-10T13:14:07.932Z,7.72
2023-05-10T13:16:34.849Z,10.02
2023-05-10T13:19:01.619Z,8.93
2023-05-10T13:21:30.470Z,8.45
2023-05-10T13:23:57.094Z,9.25
2023-05-10T13:26:23.721Z,8.68
2023-05-10T13:28:52.434Z,11.23
2023-05-10T13:31:19.187Z,10.18
2023-05-10T13:33:46.088Z,10.05
2023-05-10T13:36:12.915Z,9.70
2023-05-10T13:38:39.855Z,8.68
2023-05-10T13:41:06.772Z,7.13
2023-05-10T13:43:33.437Z,8.55
2023-05-10T13:46:00.175Z,7.05
2023-05-10T13:48:28.193Z,6.72
2023-05-10T13:50:55.265Z,6.88
2023-05-10T13:53:22.250Z,8.02
2023-05-10T13:55:51.408Z,8.52
2023-05-10T13:58:18.108Z,6.63
2023-05-10T14:00:44.872Z,7.38
2023-05-10T14:03:12.062Z,9.40
2023-05-10T14:05:50.535Z,7.85
2023-05-10T14:08:18.743Z,6.93
2023-05-10T14:10:46.180Z,8.77
2023-05-10T14:13:13.780Z,9.50
2023-05-10T14:15:41.147Z,9.27
2023-05-10T14:18:08.025Z,7.15
2023-05-10T14:20:35.185Z,7.70
2023-05-10T14:23:02.751Z,8.77
2023-05-10T14:25:29.639Z,8.55
2023-05-10T14:27:56.897Z,8.23
2023-05-10T14:30:23.901Z,8.57
2023-05-10T14:32:59.062Z,9.05
2023-05-10T14:35:26.082Z,9.00
2023-05-10T14:37:53.014Z,7.13
2023-05-10T14:40:20.397Z,7.95
2023-05-10T14:42:47.241Z,7.57
2023-05-10T14:45:14.147Z,8.55
2023-05-10T14:47:41.452Z,8.00
2023-05-10T14:50:09.079Z,6.82
2023-05-10T14:52:35.906Z,6.47
2023-05-10T14:55:03.008Z,5.57
2023-05-10T14:57:30.695Z,6.70
2023-05-10T14:59:57.964Z,7.15
2023-05-10T15:02:27.255Z,6.20
2023-05-10T15:04:54.434Z,6.47
2023-05-10T15:07:21.495Z,6.07
2023-05-10T15:09:48.150Z,6.97
2023-05-10T15:12:14.911Z,7.93
2023-05-10T15:14:41.637Z,6.78
2023-05-10T15:17:08.735Z,7.95
2023-05-10T15:19:35.702Z,8.20
2023-05-10T15:22:03.184Z,8.23
2023-05-10T15:24:30.053Z,7.43
2023-05-10T15:26:56.657Z,7.60
2023-05-10T15:29:23.458Z,7.65
2023-05-10T15:31:51.365Z,9.02
2023-05-10T15:34:18.964Z,8.03
2023-05-10T15:36:46.305Z,6.50
2023-05-10T15:39:13.186Z,7.20
2023-05-10T15:41:39.910Z,7.93
2023-05-10T15:44:06.624Z,6.13
2023-05-10T15:46:33.321Z,7.15
2023-05-10T15:49:00.266Z,8.77
2023-05-10T15:51:27.075Z,5.70
2023-05-10T15:54:05.809Z,7.45
2023-05-10T15:59:01.980Z,8.35
2023-05-10T16:01:29.108Z,6.28
2023-05-10T16:03:55.957Z,5.72
2023-05-10T16:06:22.773Z,5.20
2023-05-10T16:08:51.976Z,6.43
2023-05-10T16:11:21.198Z,5.20
2023-05-10T16:13:48.004Z,6.20
2023-05-10T16:16:14.784Z,8.18
2023-05-10T16:18:44.197Z,6.47
2023-05-10T16:21:12.445Z,4.97
2023-05-10T16:23:43.791Z,5.43
2023-05-10T16:26:12.273Z,6.70
2023-05-10T16:28:45.883Z,4.63
2023-05-10T16:31:17.328Z,6.50
2023-05-10T16:33:47.996Z,5.80
2023-05-10T16:36:17.736Z,5.65
2023-05-10T16:38:45.468Z,6.38
2023-05-10T16:41:14.992Z,5.22
2023-05-10T16:43:44.859Z,6.82
2023-05-10T16:46:25.497Z,7.57
2023-05-10T16:49:04.713Z,6.03
2023-05-10T16:51:33.817Z,6.97
2023-05-10T16:54:02.143Z,4.93
2023-05-10T16:56:30.155Z,5.55
2023-05-10T16:58:59.886Z,7.90
2023-05-10T17:01:37.077Z,7.50
2023-05-10T17:04:05.227Z,7.43
2023-05-10T17:06:37.516Z,5.40
2023-05-10T17:09:05.988Z,4.47
2023-05-10T17:11:38.402Z,5.25
2023-05-10T17:14:14.742Z,8.43
2023-05-10T17:16:43.290Z,5.07
2023-05-10T17:19:11.159Z,4.88
2023-05-10T17:21:45.589Z,7.43
2023-05-10T17:24:20.475Z,5.70
2023-05-10T17:26:47.468Z,7.75
2023-05-10T17:29:14.848Z,4.22
2023-05-10T17:31:44.210Z,4.47
2023-05-10T17:34:11.241Z,7.38
2023-05-10T17:36:38.156Z,6.72
2023-05-10T17:39:07.369Z,3.38
2023-05-10T17:41:37.834Z,4.72
2023-05-10T17:44:07.708Z,9.00
2023-05-10T17:49:02.450Z,8.68
2023-05-10T17:51:39.293Z,5.72
2023-05-10T17:54:16.508Z,6.35
2023-05-10T17:56:47.349Z,5.28
2023-05-10T17:59:14.512Z,6.95
2023-05-10T18:01:44.223Z,6.57
2023-05-10T18:04:13.795Z,9.43
2023-05-10T18:06:42.259Z,6.13
2023-05-10T18:09:13.396Z,4.03
2023-05-10T18:11:40.721Z,5.72
2023-05-10T18:14:28.497Z,4.50
2023-05-10T18:17:13.595Z,6.95
2023-05-10T18:19:44.551Z,7.28
2023-05-10T18:22:18.349Z,6.32
2023-05-10T18:24:57.869Z,5.25
2023-05-10T18:27:35.761Z,5.93
2023-05-10T18:30:10.927Z,6.88
2023-05-10T18:32:38.693Z,3.83
2023-05-10T18:35:07.737Z,5.65
2023-05-10T18:37:36.030Z,4.45
2023-05-10T18:40:06.868Z,2.17
2023-05-10T18:42:36.876Z,6.85
2023-05-10T18:45:04.230Z,5.20
2023-05-10T18:47:31.195Z,6.90
2023-05-10T18:49:58.912Z,2.63
2023-05-10T18:52:28.412Z,6.20
2023-05-10T18:55:02.078Z,4.95
2023-05-10T18:57:31.638Z,5.15
2023-05-10T18:59:59.564Z,6.22
2023-05-10T19:02:32.434Z,5.88
2023-05-10T19:05:07.148Z,5.95
2023-05-10T19:07:38.220Z,3.10
2023-05-10T19:10:08.494Z,8.18
2023-05-10T19:12:45.243Z,3.75
2023-05-10T19:15:20.169Z,7.32
2023-05-10T19:17:51.008Z,4.38
2023-05-10T19:20:18.946Z,3.00
2023-05-10T19:23:08.467Z,2.20
2023-05-10T19:25:48.503Z,3.60
2023-05-10T19:28:16.725Z,2.97
2023-05-10T19:30:47.336Z,5.55
2023-05-10T19:35:49.939Z,4.68
2023-05-10T19:38:23.990Z,2.63
2023-05-10T19:40:57.869Z,3.75
2023-05-10T19:43:26.428Z,5.50
2023-05-10T19:45:59.370Z,5.47
2023-05-10T19:48:26.986Z,3.90
2023-05-10T19:50:59.449Z,4.97
2023-05-10T19:53:26.509Z,3.40
2023-05-10T19:55:56.670Z,5.18
2023-05-10T19:58:23.734Z,2.78
2023-05-10T20:00:50.647Z,6.82
2023-05-10T20:03:17.658Z,3.22
2023-05-10T20:05:44.936Z,3.00
2023-05-10T20:08:11.940Z,2.72
2023-05-10T20:10:38.974Z,3.17
2023-05-10T20:13:05.881Z,4.78
2023-05-10T20:15:34.079Z,5.05
2023-05-10T20:18:01.713Z,3.00
2023-05-10T20:20:30.401Z,4.75
2023-05-10T20:23:00.037Z,4.25
2023-05-10T20:25:26.982Z,5.45
2023-05-10T20:27:53.883Z,6.38
2023-05-10T20:30:20.800Z,4.72
2023-05-10T20:32:47.735Z,4.28
2023-05-10T20:35:14.622Z,6.18
2023-05-10T20:37:41.278Z,4.90
2023-05-10T20:40:08.604Z,5.55
2023-05-10T20:42:35.554Z,5.68
2023-05-10T20:45:02.353Z,3.38
2023-05-10T20:47:29.194Z,4.95
2023-05-10T20:49:55.882Z,5.03
2023-05-10T20:52:24.457Z,4.05
2023-05-10T20:54:51.403Z,4.00
2023-05-10T20:57:18.224Z,6.28
2023-05-10T20:59:45.003Z,4.22
2023-05-10T21:02:11.762Z,4.13
2023-05-10T21:04:38.613Z,7.15
2023-05-10T21:07:05.381Z,3.58
2023-05-10T21:09:32.070Z,4.85
2023-05-10T21:11:58.772Z,5.22
2023-05-10T21:14:25.588Z,4.80
2023-05-10T21:16:55.499Z,4.93
2023-05-10T21:19:22.175Z,6.20
2023-05-10T21:21:48.982Z,6.05
2023-05-10T21:24:16.649Z,3.55
2023-05-10T21:26:46.282Z,6.15
2023-05-10T21:29:12.920Z,6.60
2023-05-10T21:31:42.188Z,5.22
2023-05-10T21:34:09.218Z,5.57
2023-05-10T21:36:36.390Z,7.47
2023-05-10T21:39:03.552Z,5.03
2023-05-10T21:41:30.650Z,6.63
2023-05-10T21:43:57.577Z,5.57
2023-05-10T21:46:24.590Z,6.63
2023-05-10T21:48:59.717Z,6.00
2023-05-10T21:51:26.911Z,5.35
2023-05-10T21:53:53.953Z,4.15
2023-05-10T21:56:21.060Z,3.78
2023-05-10T21:58:56.213Z,3.72
2023-05-10T22:01:23.201Z,5.18
2023-05-10T22:03:50.380Z,6.18
2023-05-10T22:06:17.744Z,4.57
2023-05-10T22:08:44.663Z,5.07
2023-05-10T22:11:11.489Z,6.32
2023-05-10T22:13:38.886Z,9.02
2023-05-10T22:16:07.345Z,9.10
2023-05-10T22:18:44.243Z,8.77
2023-05-10T22:21:11.283Z,3.42
2023-05-10T22:23:46.348Z,7.45
2023-05-10T22:26:16.521Z,4.30
2023-05-10T22:28:52.065Z,6.22
2023-05-10T22:31:18.996Z,3.42
2023-05-10T22:33:46.376Z,3.63
2023-05-10T22:36:15.369Z,4.78
2023-05-10T22:38:42.682Z,6.40
2023-05-10T22:41:09.616Z,2.53
2023-05-10T22:43:36.779Z,5.38
2023-05-10T22:46:09.022Z,3.55
2023-05-10T22:48:44.185Z,6.05
2023-05-10T22:51:11.377Z,2.78
2023-05-10T22:53:50.571Z,4.03
2023-05-10T22:56:23.083Z,3.65
2023-05-10T22:59:01.149Z,3.53
2023-05-10T23:01:29.152Z,6.55
2023-05-10T23:03:56.481Z,4.65
2023-05-10T23:06:23.611Z,5.13
2023-05-10T23:08:50.583Z,4.95
2023-05-10T23:11:17.630Z,7.18
2023-05-10T23:13:44.684Z,7.32
2023-05-10T23:16:12.183Z,8.45
2023-05-10T23:18:39.748Z,8.43
2023-05-10T23:21:06.722Z,6.22
2023-05-10T23:23:34.172Z,7.93
2023-05-10T23:26:05.245Z,3.30
2023-05-10T23:28:32.362Z,3.85
2023-05-10T23:30:59.429Z,4.80
2023-05-10T23:33:29.036Z,8.23
2023-05-10T23:35:55.828Z,3.40
2023-05-10T23:38:22.581Z,5.68
2023-05-10T23:40:50.280Z,5.20
2023-05-10T23:43:19.715Z,5.90
2023-05-10T23:45:56.985Z,6.45
2023-05-10T23:48:24.172Z,4.07
2023-05-10T23:50:50.978Z,2.72
2023-05-10T23:53:17.815Z,4.60
2023-05-10T23:55:45.477Z,2.78
2023-05-10T23:58:12.632Z,6.20
